createdAt,value
2019-04-11T00:01:44.975Z,4.37
2019-04-11T00:04:10.142Z,4.27
2019-04-11T00:06:41.438Z,4.50
2019-04-11T00:09:14.491Z,4.60
2019-04-11T00:11:44.750Z,4.77
2019-04-11T00:14:15.995Z,4.57
2019-04-11T00:16:46.239Z,4.90
2019-04-11T00:19:16.411Z,4.33
2019-04-11T00:21:47.005Z,5.50
2019-04-11T00:24:17.177Z,5.33
2019-04-11T00:26:48.602Z,5.07
2019-04-11T00:29:18.961Z,5.07
2019-04-11T00:31:49.851Z,5.00
2019-04-11T00:34:20.629Z,5.53
2019-04-11T00:36:52.472Z,5.13
2019-04-11T00:39:23.655Z,5.73
2019-04-11T00:41:54.418Z,5.53
2019-04-11T00:44:25.090Z,5.33
2019-04-11T00:46:56.342Z,6.77
2019-04-11T00:49:27.210Z,5.13
2019-04-11T00:51:58.306Z,5.20
2019-04-11T00:54:29.043Z,4.90
2019-04-11T00:56:59.478Z,6.03
2019-04-11T00:59:32.157Z,5.43
2019-04-11T01:02:03.642Z,5.77
2019-04-11T01:04:34.869Z,5.40
2019-04-11T01:07:05.232Z,5.43
2019-04-11T01:09:36.851Z,5.70
2019-04-11T01:12:08.072Z,5.80
2019-04-11T01:14:38.636Z,5.63
2019-04-11T01:17:10.344Z,5.53
2019-04-11T01:19:40.752Z,6.03
2019-04-11T01:22:11.481Z,5.13
2019-04-11T01:24:42.058Z,5.47
2019-04-11T01:27:12.527Z,5.87
2019-04-11T01:29:43.907Z,6.27
2019-04-11T01:32:15.956Z,5.23
2019-04-11T01:34:46.240Z,5.60
2019-04-11T01:37:17.589Z,5.87
2019-04-11T01:39:59.441Z,5.80
2019-04-11T01:42:31.243Z,5.77
2019-04-11T01:45:03.141Z,5.30
2019-04-11T01:47:49.670Z,5.57
2019-04-11T01:50:23.341Z,5.80
2019-04-11T01:52:54.893Z,6.10
2019-04-11T01:55:26.231Z,5.63
2019-04-11T01:57:56.640Z,5.53
2019-04-11T02:00:48.794Z,6.27
2019-04-11T02:03:26.016Z,5.60
2019-04-11T02:05:57.102Z,5.67
2019-04-11T02:08:27.375Z,5.17
2019-04-11T02:10:59.240Z,5.63
2019-04-11T02:13:32.153Z,6.07
2019-04-11T02:16:02.961Z,5.60
2019-04-11T02:18:35.213Z,5.50
2019-04-11T02:21:05.731Z,5.70
2019-04-11T02:23:53.092Z,5.90
2019-04-11T02:26:27.282Z,5.93
2019-04-11T02:28:59.403Z,5.07
2019-04-11T02:31:30.630Z,5.30
2019-04-11T02:34:02.465Z,5.50
2019-04-11T02:36:34.308Z,6.00
2019-04-11T02:39:16.137Z,5.60
2019-04-11T02:41:44.516Z,6.00
2019-04-11T02:44:32.064Z,6.47
2019-04-11T02:46:55.780Z,6.00
2019-04-11T02:49:19.521Z,5.87
2019-04-11T02:51:51.494Z,6.07
2019-04-11T02:54:25.852Z,6.30
2019-04-11T02:56:55.302Z,6.80
2019-04-11T02:59:27.322Z,7.10
2019-04-11T03:01:58.240Z,6.87
2019-04-11T03:04:30.837Z,6.50
2019-04-11T03:07:01.400Z,6.50
2019-04-11T03:09:31.829Z,6.73
2019-04-11T03:12:02.987Z,6.20
2019-04-11T03:14:54.477Z,6.07
2019-04-11T03:17:14.038Z,6.73
2019-04-11T03:19:53.615Z,6.83
2019-04-11T03:22:11.606Z,6.77
2019-04-11T03:24:42.951Z,6.13
2019-04-11T03:27:15.313Z,6.33
2019-04-11T03:29:46.977Z,6.67
2019-04-11T03:33:14.830Z,6.87
2019-04-11T03:35:34.842Z,6.43
2019-04-11T03:37:44.637Z,5.87
2019-04-11T03:40:13.167Z,6.60
2019-04-11T03:42:41.754Z,6.03
2019-04-11T03:45:20.928Z,7.07
2019-04-11T03:47:40.854Z,6.33
2019-04-11T03:50:08.521Z,6.53
2019-04-11T03:52:36.663Z,6.70
2019-04-11T03:55:08.631Z,7.17
2019-04-11T03:57:39.390Z,6.73
2019-04-11T04:00:12.718Z,7.13
2019-04-11T04:02:44.268Z,7.10
2019-04-11T04:05:15.351Z,7.67
2019-04-11T04:07:46.509Z,7.03
2019-04-11T04:10:19.873Z,7.00
2019-04-11T04:12:51.627Z,7.50
2019-04-11T04:15:54.028Z,6.97
2019-04-11T04:18:19.189Z,6.73
2019-04-11T04:21:17.445Z,6.97
2019-04-11T04:23:51.682Z,7.13
2019-04-11T04:26:22.840Z,6.70
2019-04-11T04:28:53.485Z,6.30
2019-04-11T04:31:24.435Z,7.50
2019-04-11T04:33:55.565Z,6.40
2019-04-11T04:36:28.839Z,6.67
2019-04-11T04:39:01.397Z,7.33
2019-04-11T04:41:41.408Z,6.97
2019-04-11T04:44:06.455Z,7.23
2019-04-11T04:46:52.730Z,6.97
2019-04-11T04:49:11.121Z,7.37
2019-04-11T04:51:43.539Z,6.97
2019-04-11T04:54:14.239Z,6.93
2019-04-11T04:56:47.363Z,7.43
2019-04-11T04:59:19.303Z,8.00
2019-04-11T05:01:50.846Z,6.90
2019-04-11T05:04:23.232Z,6.80
2019-04-11T05:06:55.085Z,6.97
2019-04-11T05:09:25.696Z,7.27
2019-04-11T05:11:56.403Z,8.23
2019-04-11T05:14:27.476Z,6.47
2019-04-11T05:16:58.122Z,6.90
2019-04-11T05:19:29.912Z,7.63
2019-04-11T05:22:00.357Z,7.40
2019-04-11T05:24:30.561Z,5.97
2019-04-11T05:27:00.935Z,7.03
2019-04-11T05:29:31.397Z,7.30
2019-04-11T05:32:01.611Z,7.20
2019-04-11T05:34:32.985Z,6.87
2019-04-11T05:37:03.965Z,6.90
2019-04-11T05:39:34.247Z,7.30
2019-04-11T05:42:05.086Z,7.50
2019-04-11T05:44:38.211Z,8.03
2019-04-11T05:47:08.900Z,7.10
2019-04-11T05:49:47.532Z,8.00
2019-04-11T05:52:17.858Z,7.33
2019-04-11T05:54:57.081Z,6.97
2019-04-11T05:57:34.235Z,7.23
2019-04-11T06:00:00.285Z,7.47
2019-04-11T06:02:51.094Z,7.40
2019-04-11T06:05:44.654Z,7.63
2019-04-11T06:08:22.454Z,7.43
2019-04-11T06:11:04.249Z,7.50
2019-04-11T06:13:49.096Z,7.70
2019-04-11T06:16:19.272Z,6.97
2019-04-11T06:19:08.080Z,8.60
2019-04-11T06:21:42.538Z,7.70
2019-04-11T06:24:30.451Z,8.07
2019-04-11T06:27:15.398Z,7.30
2019-04-11T06:30:05.409Z,7.47
2019-04-11T06:32:54.396Z,7.93
2019-04-11T06:35:35.887Z,8.10
2019-04-11T06:38:25.210Z,7.60
2019-04-11T06:41:08.397Z,7.10
2019-04-11T06:43:58.510Z,8.10
2019-04-11T06:46:49.639Z,7.93
2019-04-11T06:49:48.859Z,8.10
2019-04-11T06:52:20.879Z,7.17
2019-04-11T06:55:16.225Z,7.47
2019-04-11T06:57:48.065Z,7.60
2019-04-11T07:00:19.063Z,7.60
2019-04-11T07:02:55.079Z,7.63
2019-04-11T07:05:26.828Z,8.07
2019-04-11T07:07:57.838Z,8.03
2019-04-11T07:10:42.534Z,7.67
2019-04-11T07:13:26.026Z,7.63
2019-04-11T07:15:57.935Z,7.87
2019-04-11T07:18:53.140Z,7.83
2019-04-11T07:21:27.575Z,7.40
2019-04-11T07:24:16.080Z,7.53
2019-04-11T07:26:52.071Z,8.67
2019-04-11T07:30:00.076Z,8.40
2019-04-11T07:32:30.789Z,7.20
2019-04-11T07:35:19.375Z,8.40
2019-04-11T07:37:53.177Z,7.47
2019-04-11T07:40:41.321Z,8.13
2019-04-11T07:43:23.038Z,7.57
2019-04-11T07:46:25.406Z,8.67
2019-04-11T07:49:08.166Z,8.30
2019-04-11T07:51:45.536Z,7.97
2019-04-11T07:54:18.082Z,8.27
2019-04-11T07:56:55.133Z,7.97
2019-04-11T07:59:32.441Z,7.73
2019-04-11T08:02:21.384Z,7.43
2019-04-11T08:05:11.076Z,8.00
2019-04-11T08:07:51.505Z,8.20
2019-04-11T08:10:29.380Z,7.20
2019-04-11T08:13:01.857Z,8.50
2019-04-11T08:15:57.897Z,7.77
2019-04-11T08:18:48.725Z,7.93
2019-04-11T08:21:37.289Z,7.87
2019-04-11T08:24:11.996Z,7.60
2019-04-11T08:27:04.310Z,8.00
2019-04-11T08:29:34.533Z,7.77
2019-04-11T08:32:23.672Z,7.77
2019-04-11T08:35:03.959Z,7.63
2019-04-11T08:37:52.175Z,7.17
2019-04-11T08:40:22.489Z,7.37
2019-04-11T08:43:15.061Z,8.10
2019-04-11T08:45:50.636Z,7.67
2019-04-11T08:48:22.192Z,8.33
2019-04-11T08:50:56.197Z,9.13
2019-04-11T08:53:44.821Z,8.33
2019-04-11T08:56:15.729Z,7.80
2019-04-11T08:59:35.983Z,9.10
2019-04-11T09:02:07.024Z,8.27
2019-04-11T09:05:08.469Z,8.37
2019-04-11T09:07:36.012Z,7.70
2019-04-11T09:10:24.182Z,7.57
2019-04-11T09:13:00.617Z,8.60
2019-04-11T09:15:49.153Z,8.63
2019-04-11T09:18:19.675Z,6.83
2019-04-11T09:21:07.877Z,8.03
2019-04-11T09:23:38.279Z,7.83
2019-04-11T09:26:25.723Z,7.43
2019-04-11T09:28:57.889Z,7.80
2019-04-11T09:31:45.397Z,7.90
2019-04-11T09:34:44.072Z,7.33
2019-04-11T09:37:29.418Z,6.63
2019-04-11T09:40:12.281Z,7.23
2019-04-11T09:43:07.573Z,7.60
2019-04-11T09:46:03.848Z,7.70
2019-04-11T09:48:53.820Z,7.43
2019-04-11T09:51:45.759Z,7.10
2019-04-11T09:54:52.763Z,7.40
2019-04-11T09:57:29.739Z,7.87
2019-04-11T10:00:24.727Z,7.50
2019-04-11T10:03:21.487Z,7.33
2019-04-11T10:06:19.710Z,7.33
2019-04-11T10:08:53.754Z,7.90
2019-04-11T10:11:55.195Z,7.80
2019-04-11T10:14:27.562Z,7.33
2019-04-11T10:17:16.844Z,7.87
2019-04-11T10:19:54.278Z,9.07
2019-04-11T10:22:49.390Z,8.40
2019-04-11T10:25:39.193Z,7.30
2019-04-11T10:28:29.574Z,7.77
2019-04-11T10:31:12.661Z,7.47
2019-04-11T10:34:07.049Z,8.20
2019-04-11T10:36:47.578Z,8.53
2019-04-11T10:39:37.544Z,8.17
2019-04-11T10:42:10.553Z,7.67
2019-04-11T10:44:58.688Z,7.90
2019-04-11T10:47:31.216Z,7.57
2019-04-11T10:50:21.691Z,7.80
2019-04-11T10:52:55.097Z,7.53
2019-04-11T10:55:57.862Z,7.70
2019-04-11T10:58:36.990Z,7.03
2019-04-11T11:01:25.587Z,6.53
2019-04-11T11:04:31.016Z,6.90
2019-04-11T11:07:11.413Z,7.90
2019-04-11T11:09:50.462Z,7.10
2019-04-11T11:12:41.503Z,7.50
2019-04-11T11:15:19.820Z,7.83
2019-04-11T11:18:35.213Z,7.80
2019-04-11T11:20:55.120Z,7.50
2019-04-11T11:23:39.273Z,7.83
2019-04-11T11:26:12.628Z,8.30
2019-04-11T11:29:00.446Z,9.07
2019-04-11T11:31:40.800Z,8.80
2019-04-11T11:34:19.290Z,7.90
2019-04-11T11:37:05.180Z,8.40
2019-04-11T11:39:53.181Z,8.00
2019-04-11T11:42:54.666Z,8.47
2019-04-11T11:45:56.319Z,8.50
2019-04-11T11:48:46.271Z,9.33
2019-04-11T11:51:25.653Z,9.57
2019-04-11T11:54:13.508Z,7.77
2019-04-11T11:56:47.240Z,8.90
2019-04-11T11:59:25.111Z,8.40
2019-04-11T12:01:58.530Z,9.27
2019-04-11T12:04:48.539Z,11.50
2019-04-11T12:07:21.105Z,10.77
2019-04-11T12:10:11.249Z,9.80
2019-04-11T12:12:49.314Z,9.60
2019-04-11T12:15:41.806Z,9.03
2019-04-11T12:18:30.080Z,9.23
2019-04-11T12:21:03.355Z,8.93
2019-04-11T12:24:11.449Z,9.83
2019-04-11T12:26:50.195Z,10.10
2019-04-11T12:29:46.360Z,10.20
2019-04-11T12:32:16.671Z,9.17
2019-04-11T12:34:59.852Z,10.17
2019-04-11T12:37:35.868Z,10.30
2019-04-11T12:40:24.243Z,10.10
2019-04-11T12:42:56.160Z,10.63
2019-04-11T12:45:50.734Z,12.60
2019-04-11T12:48:23.323Z,11.07
2019-04-11T12:51:12.475Z,10.00
2019-04-11T12:53:44.808Z,8.13
2019-04-11T12:56:32.697Z,8.10
2019-04-11T12:59:16.555Z,8.47
2019-04-11T13:02:04.392Z,8.10
2019-04-11T13:04:37.034Z,8.70
2019-04-11T13:07:35.568Z,8.77
2019-04-11T13:10:29.945Z,8.30
2019-04-11T13:13:19.533Z,8.37
2019-04-11T13:16:12.178Z,8.77
2019-04-11T13:18:59.900Z,9.43
2019-04-11T13:21:49.133Z,8.43
2019-04-11T13:24:29.210Z,7.63
2019-04-11T13:27:12.909Z,8.37
2019-04-11T13:30:05.424Z,7.70
2019-04-11T13:32:55.444Z,8.40
2019-04-11T13:35:43.623Z,10.53
2019-04-11T13:38:17.407Z,8.13
2019-04-11T13:41:06.676Z,7.80
2019-04-11T13:43:45.280Z,8.03
2019-04-11T13:46:34.765Z,8.07
2019-04-11T13:49:30.675Z,7.43
2019-04-11T13:52:19.792Z,8.60
2019-04-11T13:55:07.665Z,8.97
2019-04-11T13:57:56.822Z,7.87
2019-04-11T14:00:45.325Z,8.30
2019-04-11T14:03:43.885Z,8.23
2019-04-11T14:06:37.169Z,8.83
2019-04-11T14:09:22.789Z,8.60
2019-04-11T14:12:00.151Z,7.83
2019-04-11T14:14:38.690Z,9.57
2019-04-11T14:17:16.377Z,7.70
2019-04-11T14:20:29.143Z,8.17
2019-04-11T14:23:14.708Z,7.37
2019-04-11T14:26:06.825Z,7.80
2019-04-11T14:28:43.045Z,8.47
2019-04-11T14:31:31.293Z,9.17
2019-04-11T14:34:10.314Z,7.57
2019-04-11T14:37:08.554Z,7.60
2019-04-11T14:39:41.494Z,7.70
2019-04-11T14:42:36.797Z,7.37
2019-04-11T14:45:17.444Z,7.77
2019-04-11T14:48:07.970Z,8.03
2019-04-11T14:50:56.725Z,7.73
2019-04-11T14:53:33.930Z,7.37
2019-04-11T14:56:06.615Z,8.13
2019-04-11T14:58:58.772Z,8.43
2019-04-11T15:01:29.283Z,7.67
2019-04-11T15:04:21.230Z,8.37
2019-04-11T15:06:53.480Z,8.23
2019-04-11T15:09:37.808Z,7.47
2019-04-11T15:12:17.939Z,7.73
2019-04-11T15:15:16.589Z,7.93
2019-04-11T15:17:50.881Z,7.53
2019-04-11T15:20:29.304Z,8.23
2019-04-11T15:23:06.737Z,7.60
2019-04-11T15:26:07.903Z,7.73
2019-04-11T15:28:43.724Z,9.70
2019-04-11T15:31:39.076Z,8.03
2019-04-11T15:34:12.188Z,7.83
2019-04-11T15:36:46.908Z,7.73
2019-04-11T15:39:44.034Z,8.03
2019-04-11T15:42:09.981Z,8.10
2019-04-11T15:44:55.845Z,7.97
2019-04-11T15:47:26.182Z,8.00
2019-04-11T15:54:13.029Z,8.20
2019-04-11T15:57:12.243Z,7.60
2019-04-11T15:59:59.774Z,8.13
2019-04-11T16:02:49.003Z,8.30
2019-04-11T16:05:48.123Z,9.00
2019-04-11T16:08:38.749Z,8.57
2019-04-11T16:11:42.864Z,8.20
2019-04-11T16:14:23.818Z,8.27
2019-04-11T16:17:13.320Z,8.23
2019-04-11T16:48:14.747Z,8.20
2019-04-11T16:50:45.278Z,9.03
2019-04-11T16:53:15.807Z,9.10
2019-04-11T16:55:46.046Z,8.87
2019-04-11T16:58:19.508Z,8.23
2019-04-11T17:00:52.073Z,8.07
2019-04-11T17:09:44.338Z,7.93
2019-04-11T17:12:14.930Z,8.77
2019-04-11T17:17:48.963Z,8.40
2019-04-11T17:20:19.158Z,8.93
2019-04-11T17:22:49.375Z,7.77
2019-04-11T17:39:24.036Z,8.00
2019-04-11T17:41:54.245Z,7.70
2019-04-11T17:44:24.774Z,8.00
2019-04-11T17:46:56.779Z,7.87
2019-04-11T17:49:26.849Z,7.27
2019-04-11T17:51:57.357Z,7.83
2019-04-11T17:54:27.635Z,8.23
2019-04-11T17:56:59.154Z,7.70
2019-04-11T17:59:29.691Z,8.77
2019-04-11T18:02:00.852Z,7.80
2019-04-11T18:04:31.486Z,7.80
2019-04-11T18:07:01.768Z,7.77
2019-04-11T18:09:31.942Z,7.50
2019-04-11T18:12:02.149Z,10.40
2019-04-11T18:14:32.419Z,8.50
2019-04-11T18:17:04.639Z,9.03
2019-04-11T18:19:36.257Z,10.23
2019-04-11T18:22:13.101Z,9.60
2019-04-11T18:24:40.471Z,8.63
2019-04-11T18:27:10.986Z,9.13
2019-04-11T18:29:41.179Z,10.00
2019-04-11T18:32:11.563Z,8.67
2019-04-11T18:34:41.906Z,9.00
2019-04-11T18:37:12.497Z,8.33
2019-04-11T18:39:42.683Z,7.30
2019-04-11T18:42:14.004Z,7.50
2019-04-11T18:44:44.631Z,7.50
2019-04-11T18:47:15.491Z,7.80
2019-04-11T18:49:45.620Z,8.47
2019-04-11T18:52:19.851Z,7.10
2019-04-11T18:54:49.614Z,7.63
2019-04-11T18:57:20.217Z,7.60
2019-04-11T18:59:50.757Z,8.43
2019-04-11T19:02:21.169Z,7.87
2019-04-11T19:04:51.681Z,8.60
2019-04-11T19:07:27.612Z,8.07
2019-04-11T19:09:53.756Z,8.90
2019-04-11T19:12:24.373Z,7.63
2019-04-11T19:14:54.914Z,8.03
2019-04-11T19:17:25.854Z,9.13
2019-04-11T19:19:56.096Z,8.70
2019-04-11T19:22:37.064Z,8.50
2019-04-11T19:24:58.520Z,8.73
2019-04-11T19:27:28.726Z,8.70
2019-04-11T19:29:59.427Z,9.63
2019-04-11T19:32:29.823Z,8.70
2019-04-11T19:35:00.393Z,9.40
2019-04-11T19:37:30.579Z,8.83
2019-04-11T19:40:00.764Z,9.00
2019-04-11T19:42:31.049Z,9.13
2019-04-11T19:45:02.912Z,9.07
2019-04-11T19:47:34.395Z,7.93
2019-04-11T19:50:05.707Z,9.20
2019-04-11T19:52:45.132Z,8.87
2019-04-11T19:55:30.005Z,9.83
2019-04-11T19:58:00.925Z,9.07
2019-04-11T20:00:31.807Z,9.73
2019-04-11T20:03:02.016Z,9.13
2019-04-11T20:05:32.280Z,9.47
2019-04-11T20:08:02.884Z,9.60
2019-04-11T20:10:33.200Z,9.13
2019-04-11T20:13:03.994Z,9.63
2019-04-11T20:15:37.274Z,9.47
2019-04-11T20:18:06.113Z,9.77
2019-04-11T20:20:37.045Z,8.83
2019-04-11T20:23:10.540Z,9.67
2019-04-11T20:25:41.146Z,9.03
2019-04-11T20:28:11.717Z,9.43
2019-04-11T20:30:41.876Z,9.03
2019-04-11T20:33:12.115Z,10.30
2019-04-11T20:35:42.284Z,9.70
2019-04-11T20:38:15.944Z,9.43
2019-04-11T20:40:44.368Z,9.27
2019-04-11T20:43:14.573Z,9.83
2019-04-11T20:45:45.557Z,9.50
2019-04-11T20:48:16.159Z,8.83
2019-04-11T20:50:46.367Z,9.47
2019-04-11T20:53:16.598Z,9.47
2019-04-11T20:55:47.207Z,9.53
2019-04-11T20:58:26.734Z,10.27
2019-04-11T21:00:53.475Z,8.97
2019-04-11T21:03:21.572Z,9.63
2019-04-11T21:05:51.761Z,9.63
2019-04-11T21:08:22.054Z,9.67
2019-04-11T21:10:52.599Z,9.70
2019-04-11T21:13:23.213Z,9.83
2019-04-11T21:15:53.665Z,9.50
2019-04-11T21:18:25.822Z,9.93
2019-04-11T21:20:55.890Z,10.47
2019-04-11T21:23:29.475Z,10.83
2019-04-11T21:25:59.087Z,11.07
2019-04-11T21:28:30.369Z,10.13
2019-04-11T21:31:01.169Z,10.37
2019-04-11T21:33:34.132Z,11.17
2019-04-11T21:36:04.566Z,10.40
2019-04-11T21:38:34.787Z,10.23
2019-04-11T21:41:06.104Z,10.47
2019-04-11T21:43:36.951Z,9.93
2019-04-11T21:46:08.269Z,10.07
2019-04-11T21:48:38.877Z,10.00
2019-04-11T21:51:11.395Z,10.60
2019-04-11T21:53:44.526Z,10.30
2019-04-11T21:56:15.956Z,9.93
2019-04-11T21:58:49.920Z,11.20
2019-04-11T22:01:22.014Z,10.50
2019-04-11T22:03:57.692Z,10.30
2019-04-11T22:06:30.071Z,9.67
2019-04-11T22:08:59.144Z,10.43
2019-04-11T22:11:29.918Z,9.63
2019-04-11T22:14:00.484Z,9.90
2019-04-11T22:16:30.683Z,10.57
2019-04-11T22:19:01.330Z,10.20
2019-04-11T22:21:31.645Z,9.87
2019-04-11T22:24:01.861Z,10.03
2019-04-11T22:26:33.223Z,10.13
2019-04-11T22:29:03.829Z,10.47
2019-04-11T22:31:34.064Z,9.97
2019-04-11T22:34:25.961Z,10.23
2019-04-11T22:36:59.609Z,10.43
2019-04-11T22:39:31.458Z,10.40
2019-04-11T22:42:01.825Z,10.93
2019-04-11T22:44:32.031Z,9.80
2019-04-11T22:47:02.269Z,10.73
2019-04-11T22:49:32.738Z,9.03
2019-04-11T22:52:04.030Z,10.33
2019-04-11T22:54:34.221Z,10.57
2019-04-11T22:57:04.485Z,10.40
2019-04-11T22:59:34.725Z,10.50
2019-04-11T23:02:16.857Z,10.20
2019-04-11T23:04:47.070Z,10.07
2019-04-11T23:07:18.543Z,10.47
2019-04-11T23:09:49.561Z,11.70
2019-04-11T23:12:21.196Z,11.77
2019-04-11T23:14:51.416Z,11.13
2019-04-11T23:17:21.668Z,11.80
2019-04-11T23:19:53.309Z,11.07
2019-04-11T23:22:23.904Z,10.90
2019-04-11T23:24:54.180Z,9.97
2019-04-11T23:27:24.782Z,11.50
2019-04-11T23:29:54.974Z,10.73
2019-04-11T23:32:25.192Z,11.67
2019-04-11T23:34:55.738Z,11.07
2019-04-11T23:37:26.286Z,11.77
2019-04-11T23:39:56.479Z,12.00
2019-04-11T23:42:26.695Z,11.60
2019-04-11T23:44:56.862Z,12.17
2019-04-11T23:47:27.382Z,11.73
2019-04-11T23:49:57.581Z,11.67
2019-04-11T23:52:28.165Z,11.57
2019-04-11T23:55:00.500Z,12.10
2019-04-11T23:57:31.206Z,11.50
